Time;durP1;ratioP1;P1;durP2;ratioP2;P2;SDS_P1;SDS_P2;PMS_P1;PMS_P2;Temp;Humidity;BMP_temperature;BMP_pressure;BME280_temperature;BME280_humidity;BME280_pressure;Samples;Min_cycle;Max_cycle;Signal;HPM_P1;HPM_P2
2023/01/23 06:00:28;;;;;;;;;61.00;40.00;;;;;;;;6291445;22;46348;31
2023/01/23 06:02:53;;;;;;;;;50.00;36.00;;;;;;;;6277021;22;45545;-52
2023/01/23 06:05:18;;;;;;;;;57.00;41.00;;;;;;;;6277237;22;45267;-52
2023/01/23 06:07:44;;;;;;;;;57.75;41.50;;;;;;;;6277108;22;45266;-54
2023/01/23 06:10:09;;;;;;;;;56.25;35.75;;;;;;;;6276276;22;45368;-53
2023/01/23 06:12:34;;;;;;;;;49.50;37.25;;;;;;;;6276956;22;45212;-54
2023/01/23 06:14:59;;;;;;;;;54.00;39.00;;;;;;;;6277094;22;45203;-55
2023/01/23 06:17:25;;;;;;;;;41.50;38.00;;;;;;;;6277431;22;45491;-53
2023/01/23 06:19:50;;;;;;;;;35.75;29.50;;;;;;;;6277267;22;45594;-56
2023/01/23 06:22:15;;;;;;;;;43.00;36.25;;;;;;;;6278024;22;45965;-52
2023/01/23 06:24:40;;;;;;;;;42.00;30.75;;;;;;;;6277261;22;45392;-55
2023/01/23 06:27:08;;;;;;;;;41.00;34.75;;;;;;;;6277236;22;45480;-53
2023/01/23 06:29:34;;;;;;;;;44.25;37.25;;;;;;;;6277199;22;45377;-54
2023/01/23 06:32:00;;;;;;;;;37.50;31.75;;;;;;;;6271849;22;45422;-54
2023/01/23 06:34:25;;;;;;;;;51.75;35.50;;;;;;;;6275869;22;45165;-53
2023/01/23 06:36:50;;;;;;;;;41.50;31.25;;;;;;;;6276851;22;45408;-55
2023/01/23 06:39:15;;;;;;;;;46.00;36.00;;;;;;;;6274721;22;45555;-56
2023/01/23 06:41:41;;;;;;;;;43.75;37.25;;;;;;;;6274857;22;46093;-56
2023/01/23 06:44:06;;;;;;;;;57.75;40.75;;;;;;;;6274536;22;45433;-54
2023/01/23 06:46:32;;;;;;;;;49.00;40.50;;;;;;;;6273417;22;45369;-55
2023/01/23 06:48:57;;;;;;;;;54.25;41.25;;;;;;;;6273723;22;45827;-54
2023/01/23 06:51:22;;;;;;;;;66.25;44.00;;;;;;;;6274411;22;45568;-56
2023/01/23 06:53:47;;;;;;;;;45.75;39.25;;;;;;;;6276894;22;45387;-54
2023/01/23 06:56:12;;;;;;;;;51.00;41.50;;;;;;;;6276901;22;45237;-54
2023/01/23 06:58:38;;;;;;;;;51.25;39.00;;;;;;;;6277425;22;45389;-55
2023/01/23 07:01:14;;;;;;;;;56.00;41.75;;;;;;;;6286773;22;46191;-54
2023/01/23 07:03:39;;;;;;;;;55.75;43.50;;;;;;;;6307489;22;45381;-54
2023/01/23 07:06:06;;;;;;;;;60.25;41.25;;;;;;;;6307196;22;45335;-55
2023/01/23 07:08:34;;;;;;;;;56.75;40.25;;;;;;;;6307442;22;45501;-56
2023/01/23 07:11:00;;;;;;;;;48.25;38.25;;;;;;;;6307036;22;46084;-55
2023/01/23 07:13:25;;;;;;;;;54.50;38.50;;;;;;;;6308200;22;45271;-55
2023/01/23 07:15:50;;;;;;;;;50.00;38.50;;;;;;;;6307757;22;45183;-56
2023/01/23 07:18:15;;;;;;;;;49.25;39.75;;;;;;;;6308295;22;45494;-55
2023/01/23 07:20:44;;;;;;;;;49.75;38.75;;;;;;;;6308638;22;45430;-56
2023/01/23 07:23:09;;;;;;;;;53.00;40.50;;;;;;;;6307703;22;45303;-54
2023/01/23 07:25:34;;;;;;;;;53.00;35.75;;;;;;;;6308340;22;45286;-54
2023/01/23 07:27:59;;;;;;;;;47.50;37.75;;;;;;;;6308076;22;45307;-54
2023/01/23 07:30:25;;;;;;;;;47.00;36.75;;;;;;;;6307395;22;46222;-55
2023/01/23 07:32:50;;;;;;;;;39.25;34.25;;;;;;;;6306088;22;45230;-55
2023/01/23 07:35:15;;;;;;;;;53.00;40.50;;;;;;;;6308383;22;45319;-56
2023/01/23 07:37:41;;;;;;;;;47.50;39.75;;;;;;;;6307633;22;45587;-55
2023/01/23 07:40:06;;;;;;;;;45.25;37.25;;;;;;;;6307272;22;46860;-55
2023/01/23 07:42:31;;;;;;;;;38.00;31.00;;;;;;;;6308346;22;45333;-55
2023/01/23 07:44:57;;;;;;;;;46.50;37.25;;;;;;;;6308131;22;45411;-54
2023/01/23 07:47:22;;;;;;;;;49.50;40.75;;;;;;;;6308360;22;45896;-55
2023/01/23 07:49:47;;;;;;;;;52.75;42.75;;;;;;;;6280187;22;45939;-54
2023/01/23 07:52:12;;;;;;;;;54.50;44.25;;;;;;;;6307890;22;45468;-54
2023/01/23 07:54:37;;;;;;;;;53.75;39.50;;;;;;;;6308106;22;45291;-54
2023/01/23 07:57:02;;;;;;;;;48.25;37.75;;;;;;;;6307434;22;45188;-54
2023/01/23 07:59:28;;;;;;;;;54.00;39.25;;;;;;;;6307950;22;45277;-56
2023/01/23 08:01:53;;;;;;;;;45.00;37.00;;;;;;;;6306654;22;45275;-52
2023/01/23 08:04:18;;;;;;;;;57.00;38.75;;;;;;;;6306417;22;45277;-56
2023/01/23 08:06:44;;;;;;;;;77.25;57.00;;;;;;;;6307204;22;45473;-54
2023/01/23 08:09:10;;;;;;;;;53.75;44.00;;;;;;;;6306404;22;45843;-53
2023/01/23 08:11:35;;;;;;;;;44.25;37.50;;;;;;;;6307531;22;45564;-55
2023/01/23 08:14:00;;;;;;;;;42.25;37.50;;;;;;;;6307578;22;45291;-54
2023/01/23 08:16:26;;;;;;;;;57.00;41.00;;;;;;;;6307315;22;45314;-52
2023/01/23 08:18:52;;;;;;;;;54.25;37.75;;;;;;;;6306034;22;45970;-54
2023/01/23 08:21:17;;;;;;;;;50.25;40.50;;;;;;;;6305950;22;45272;-52
2023/01/23 08:23:42;;;;;;;;;49.50;37.00;;;;;;;;6301436;22;45493;-55
2023/01/23 08:26:08;;;;;;;;;56.75;40.00;;;;;;;;6304098;22;45374;-55
2023/01/23 08:28:34;;;;;;;;;49.75;37.00;;;;;;;;6306083;22;46374;-54
2023/01/23 08:31:00;;;;;;;;;45.75;37.50;;;;;;;;6304398;22;45378;-54
2023/01/23 08:33:26;;;;;;;;;56.25;39.00;;;;;;;;6306677;22;45337;-56
2023/01/23 08:35:56;;;;;;;;;51.50;40.00;;;;;;;;6306247;22;45301;-55
2023/01/23 08:38:22;;;;;;;;;38.00;30.00;;;;;;;;6306764;22;46049;-55
2023/01/23 08:40:48;;;;;;;;;44.00;36.25;;;;;;;;6306266;22;45499;-54
2023/01/23 08:43:14;;;;;;;;;50.50;37.50;;;;;;;;6306087;22;45332;-53
2023/01/23 08:45:40;;;;;;;;;45.25;37.00;;;;;;;;6306102;22;45276;-55
2023/01/23 08:48:05;;;;;;;;;46.50;37.00;;;;;;;;6306140;22;46016;-55
2023/01/23 08:50:30;;;;;;;;;36.25;30.00;;;;;;;;6306317;22;45290;-55
2023/01/23 08:52:56;;;;;;;;;53.50;37.00;;;;;;;;6306388;22;45212;-53
2023/01/23 08:55:21;;;;;;;;;39.75;33.25;;;;;;;;6307953;22;45330;-56
2023/01/23 08:57:46;;;;;;;;;48.50;38.75;;;;;;;;6307553;22;46045;-56
2023/01/23 09:00:11;;;;;;;;;44.75;34.50;;;;;;;;6306384;22;45199;-57
2023/01/23 09:02:37;;;;;;;;;53.50;42.50;;;;;;;;6332060;22;45350;-56
2023/01/23 09:05:03;;;;;;;;;49.75;36.25;;;;;;;;6306559;22;45947;-56
2023/01/23 09:07:29;;;;;;;;;54.00;35.00;;;;;;;;6307298;22;45249;-56
2023/01/23 09:09:54;;;;;;;;;53.50;37.75;;;;;;;;6306779;22;45327;-54
2023/01/23 09:12:19;;;;;;;;;52.25;40.00;;;;;;;;6308126;22;45322;-56
2023/01/23 09:14:44;;;;;;;;;51.25;40.00;;;;;;;;6307644;22;45568;-54
2023/01/23 09:17:10;;;;;;;;;48.00;36.00;;;;;;;;6305661;22;46134;-54
2023/01/23 09:19:35;;;;;;;;;64.50;49.50;;;;;;;;6307353;22;45317;-55
2023/01/23 09:22:00;;;;;;;;;74.50;56.00;;;;;;;;6306605;22;45734;-55
2023/01/23 09:24:25;;;;;;;;;59.50;47.00;;;;;;;;6307645;22;45215;-54
2023/01/23 09:26:50;;;;;;;;;46.75;40.25;;;;;;;;6307601;22;45443;-55
2023/01/23 09:29:16;;;;;;;;;43.75;35.00;;;;;;;;6307617;22;45225;-53
2023/01/23 09:31:41;;;;;;;;;62.00;45.00;;;;;;;;6308101;22;45514;-55
2023/01/23 09:34:06;;;;;;;;;55.25;39.75;;;;;;;;6307448;22;45302;-54
2023/01/23 09:36:32;;;;;;;;;44.00;35.25;;;;;;;;6307331;22;46100;-56
2023/01/23 09:38:57;;;;;;;;;62.00;49.25;;;;;;;;6307478;22;45366;-54
2023/01/23 09:41:24;;;;;;;;;53.75;44.50;;;;;;;;6308237;22;45354;-53
2023/01/23 09:44:06;;;;;;;;;42.00;36.00;;;;;;;;6308013;22;45263;-56
2023/01/23 09:46:48;;;;;;;;;36.75;28.00;;;;;;;;6306949;22;46179;-50
2023/01/23 09:49:19;;;;;;;;;42.50;37.25;;;;;;;;6306821;22;45235;-54
2023/01/23 09:51:45;;;;;;;;;42.25;36.75;;;;;;;;6307955;22;45283;-53
2023/01/23 09:54:27;;;;;;;;;34.25;29.75;;;;;;;;6306339;22;45766;-55
2023/01/23 09:56:54;;;;;;;;;42.25;34.25;;;;;;;;6307456;22;46278;-54
2023/01/23 09:59:28;;;;;;;;;38.50;36.00;;;;;;;;6307374;22;45459;-51
2023/01/23 10:01:53;;;;;;;;;44.00;36.25;;;;;;;;6306091;22;45343;-56
2023/01/23 10:04:19;;;;;;;;;56.75;40.25;;;;;;;;6307546;22;45283;-55
2023/01/23 10:06:59;;;;;;;;;51.25;29.00;;;;;;;;6307242;22;45339;-53
2023/01/23 10:09:27;;;;;;;;;55.25;38.50;;;;;;;;6307218;22;45397;-54
2023/01/23 10:11:53;;;;;;;;;52.00;38.00;;;;;;;;6307229;22;45319;-55
2023/01/23 10:14:29;;;;;;;;;57.00;41.75;;;;;;;;6308137;22;45630;-55
2023/01/23 10:16:57;;;;;;;;;46.25;37.00;;;;;;;;6305873;22;46362;-55
2023/01/23 10:19:37;;;;;;;;;44.75;33.25;;;;;;;;6307199;22;45204;-55
2023/01/23 10:22:35;;;;;;;;;50.25;34.00;;;;;;;;6306959;22;45397;-55
2023/01/23 10:25:02;;;;;;;;;36.00;29.75;;;;;;;;6265825;22;45463;-56
2023/01/23 10:27:33;;;;;;;;;46.00;37.75;;;;;;;;6307492;22;46328;-53
2023/01/23 10:30:01;;;;;;;;;47.75;30.75;;;;;;;;6306521;22;45378;-52
2023/01/23 10:32:27;;;;;;;;;41.50;29.75;;;;;;;;6307792;22;45278;-54
2023/01/23 10:34:55;;;;;;;;;39.25;33.25;;;;;;;;6307310;22;45390;-56
2023/01/23 10:37:35;;;;;;;;;37.50;33.50;;;;;;;;6308185;22;46050;-55
2023/01/23 10:40:04;;;;;;;;;45.25;33.75;;;;;;;;6307812;22;45839;-54
2023/01/23 10:42:29;;;;;;;;;35.50;30.75;;;;;;;;6280368;22;45287;-54
2023/01/23 10:44:54;;;;;;;;;45.00;36.50;;;;;;;;6307717;22;45278;-55
2023/01/23 10:47:26;;;;;;;;;36.00;32.50;;;;;;;;6308637;22;45422;-55
2023/01/23 10:49:52;;;;;;;;;41.75;32.50;;;;;;;;6308040;22;45177;-55
2023/01/23 10:52:32;;;;;;;;;45.00;33.00;;;;;;;;6309094;22;45474;-55
2023/01/23 10:54:57;;;;;;;;;43.75;38.25;;;;;;;;6307083;22;45335;-55
2023/01/23 10:57:24;;;;;;;;;38.75;32.75;;;;;;;;6307838;22;45274;-54
2023/01/23 10:59:54;;;;;;;;;40.50;27.75;;;;;;;;6307510;22;45263;-55
2023/01/23 11:02:25;;;;;;;;;39.50;34.00;;;;;;;;6307733;22;45243;-56
2023/01/23 11:04:50;;;;;;;;;46.25;37.75;;;;;;;;6308363;22;45666;-56
2023/01/23 11:07:26;;;;;;;;;50.25;36.25;;;;;;;;6308257;22;46140;-53
2023/01/23 11:09:53;;;;;;;;;32.25;30.75;;;;;;;;6307326;22;45302;-54
2023/01/23 11:12:23;;;;;;;;;39.25;31.00;;;;;;;;6307566;22;45255;-53
2023/01/23 11:14:48;;;;;;;;;39.50;27.25;;;;;;;;6306905;22;45248;-54
2023/01/23 11:17:16;;;;;;;;;36.50;31.00;;;;;;;;6307224;22;46160;-52
2023/01/23 11:19:42;;;;;;;;;33.50;29.25;;;;;;;;6307837;22;45611;-52
2023/01/23 11:22:28;;;;;;;;;34.75;26.75;;;;;;;;6308141;22;45278;-57
2023/01/23 11:24:54;;;;;;;;;34.25;28.00;;;;;;;;6307245;22;45261;-56
2023/01/23 11:27:25;;;;;;;;;34.00;28.75;;;;;;;;6308427;22;45274;-56
2023/01/23 11:30:09;;;;;;;;;38.25;27.50;;;;;;;;6306888;22;45380;-56
2023/01/23 11:32:40;;;;;;;;;41.50;30.50;;;;;;;;6307779;22;45290;-55
2023/01/23 11:35:15;;;;;;;;;34.25;31.00;;;;;;;;6307682;22;45571;-57
2023/01/23 11:37:40;;;;;;;;;30.50;18.50;;;;;;;;6308189;22;46321;-56
2023/01/23 11:40:10;;;;;;;;;35.25;27.00;;;;;;;;6307142;22;45192;-57
2023/01/23 11:42:38;;;;;;;;;31.50;26.00;;;;;;;;6277133;22;45323;-60
2023/01/23 11:45:04;;;;;;;;;34.75;26.50;;;;;;;;6306177;22;45488;-61
2023/01/23 11:47:36;;;;;;;;;40.75;30.00;;;;;;;;6304118;22;45328;-64
2023/01/23 11:50:16;;;;;;;;;47.50;27.75;;;;;;;;6305374;22;45353;-63
2023/01/23 11:52:44;;;;;;;;;32.75;25.75;;;;;;;;6307256;22;45325;-57
2023/01/23 11:55:24;;;;;;;;;37.75;25.25;;;;;;;;6307441;22;45683;-56
2023/01/23 11:57:55;;;;;;;;;42.50;29.50;;;;;;;;6307227;22;45996;-55
2023/01/23 12:00:39;;;;;;;;;35.00;28.00;;;;;;;;6307332;22;45303;-60
2023/01/23 12:03:19;;;;;;;;;42.25;34.25;;;;;;;;6307617;22;45324;-59
2023/01/23 12:06:14;;;;;;;;;32.00;26.50;;;;;;;;6306407;22;45402;-59
2023/01/23 12:08:58;;;;;;;;;40.75;35.50;;;;;;;;6292940;22;45253;-58
2023/01/23 12:11:25;;;;;;;;;47.50;30.25;;;;;;;;6307635;22;45325;-57
2023/01/23 12:14:04;;;;;;;;;39.50;30.00;;;;;;;;6307333;22;45338;-59
2023/01/23 12:16:29;;;;;;;;;38.25;26.50;;;;;;;;6306957;22;45362;-59
2023/01/23 12:18:57;;;;;;;;;29.00;21.00;;;;;;;;6307447;22;45408;-59
2023/01/23 12:21:32;;;;;;;;;35.00;33.00;;;;;;;;6308294;22;45227;-59
2023/01/23 12:24:06;;;;;;;;;44.00;35.75;;;;;;;;6306646;22;45164;-56
2023/01/23 12:26:33;;;;;;;;;41.00;29.50;;;;;;;;6307012;22;45584;-59
2023/01/23 12:29:21;;;;;;;;;40.00;31.25;;;;;;;;6307564;22;45322;-60
2023/01/23 12:31:56;;;;;;;;;37.00;30.50;;;;;;;;6276303;22;45326;-58
2023/01/23 12:34:21;;;;;;;;;38.00;30.75;;;;;;;;6279885;22;45420;-58
2023/01/23 12:36:57;;;;;;;;;35.50;31.75;;;;;;;;6307812;22;45414;-60
2023/01/23 12:39:58;;;;;;;;;37.00;28.75;;;;;;;;6307660;22;45346;-58
2023/01/23 12:42:27;;;;;;;;;39.50;26.25;;;;;;;;6241456;22;45409;-59
2023/01/23 12:45:15;;;;;;;;;32.50;28.25;;;;;;;;6294576;22;45374;-59
2023/01/23 12:47:59;;;;;;;;;33.00;30.25;;;;;;;;6307654;22;45267;-59
2023/01/23 12:50:37;;;;;;;;;32.50;29.25;;;;;;;;6331350;22;45664;-60
2023/01/23 12:53:09;;;;;;;;;38.00;30.75;;;;;;;;6306257;22;45289;-59
2023/01/23 12:55:37;;;;;;;;;33.75;24.25;;;;;;;;6306828;22;45287;-59
2023/01/23 12:58:03;;;;;;;;;26.25;23.75;;;;;;;;6307265;22;45222;-59
2023/01/23 13:00:36;;;;;;;;;35.75;29.75;;;;;;;;6306350;22;45277;-60
2023/01/23 13:03:21;;;;;;;;;29.25;22.00;;;;;;;;6307410;22;45371;-60
2023/01/23 13:05:54;;;;;;;;;27.75;21.50;;;;;;;;6308212;22;45173;-60
2023/01/23 13:08:23;;;;;;;;;35.50;26.25;;;;;;;;6307881;22;45392;-60
2023/01/23 13:13:43;;;;;;;;;28.00;20.00;;;;;;;;6307021;22;45432;-60
2023/01/23 13:16:09;;;;;;;;;23.00;19.50;;;;;;;;6307115;22;45267;-60
2023/01/23 13:21:59;;;;;;;;;33.00;25.50;;;;;;;;6307295;22;45438;-59
2023/01/23 13:27:29;;;;;;;;;23.50;14.75;;;;;;;;6307658;22;45242;-60
2023/01/23 13:29:54;;;;;;;;;29.50;24.00;;;;;;;;6278099;22;46041;-60
2023/01/23 13:32:21;;;;;;;;;28.00;22.25;;;;;;;;6307137;22;46175;-60
2023/01/23 13:34:47;;;;;;;;;35.50;25.00;;;;;;;;6305474;22;45560;-60
2023/01/23 13:37:27;;;;;;;;;26.00;21.75;;;;;;;;6306407;22;45343;-60
2023/01/23 13:40:13;;;;;;;;;25.25;20.50;;;;;;;;6308463;22;45223;-60
2023/01/23 13:42:38;;;;;;;;;28.50;23.25;;;;;;;;6277409;22;46062;-59
2023/01/23 13:45:33;;;;;;;;;25.50;20.75;;;;;;;;6306757;22;45243;-61
2023/01/23 13:50:51;;;;;;;;;20.50;20.00;;;;;;;;6308195;22;45311;-60
2023/01/23 13:58:48;;;;;;;;;26.75;24.25;;;;;;;;6308743;22;45286;-61
2023/01/23 14:06:48;;;;;;;;;30.50;24.25;;;;;;;;6307398;22;45379;-60
2023/01/23 14:09:18;;;;;;;;;35.00;22.25;;;;;;;;6308075;22;45319;-60
2023/01/23 14:11:44;;;;;;;;;31.50;25.25;;;;;;;;6308338;22;45384;-61
2023/01/23 14:16:53;;;;;;;;;25.00;22.00;;;;;;;;6307921;22;45231;-59
2023/01/23 14:19:24;;;;;;;;;35.25;23.50;;;;;;;;6308716;22;45077;-59
2023/01/23 14:21:56;;;;;;;;;34.25;26.75;;;;;;;;6308305;22;45382;-60
2023/01/23 14:24:26;;;;;;;;;30.75;24.75;;;;;;;;6307980;22;45424;-59
2023/01/23 14:26:52;;;;;;;;;31.50;27.00;;;;;;;;6308290;22;45434;-60
2023/01/23 14:29:22;;;;;;;;;29.25;25.25;;;;;;;;6308174;22;45224;-60
2023/01/23 14:31:49;;;;;;;;;32.25;24.75;;;;;;;;6280157;22;45478;-60
2023/01/23 14:34:16;;;;;;;;;29.25;25.25;;;;;;;;6306755;22;46288;-59
2023/01/23 14:36:43;;;;;;;;;25.50;20.50;;;;;;;;6307719;22;45335;-60
2023/01/23 14:39:14;;;;;;;;;29.75;23.50;;;;;;;;6279504;22;45339;-59
2023/01/23 14:41:39;;;;;;;;;26.25;20.25;;;;;;;;6308068;22;45266;-59
2023/01/23 14:44:06;;;;;;;;;27.75;24.00;;;;;;;;6307914;22;45896;-60
2023/01/23 14:46:34;;;;;;;;;26.75;21.50;;;;;;;;6307467;22;45220;-60
2023/01/23 14:48:59;;;;;;;;;27.50;23.50;;;;;;;;6306241;22;45607;-61
2023/01/23 14:51:25;;;;;;;;;29.00;21.75;;;;;;;;6307632;22;45163;-59
2023/01/23 14:53:55;;;;;;;;;25.67;19.67;;;;;;;;6307915;22;45283;-60
2023/01/23 14:56:23;;;;;;;;;28.75;20.75;;;;;;;;6308442;22;45391;-60
2023/01/23 14:58:49;;;;;;;;;24.50;21.25;;;;;;;;6306215;22;45305;-60
2023/01/23 15:01:14;;;;;;;;;27.75;23.25;;;;;;;;6306967;22;45538;-59
2023/01/23 15:03:53;;;;;;;;;24.75;20.00;;;;;;;;6307329;22;45605;-59
2023/01/23 15:06:19;;;;;;;;;20.67;19.33;;;;;;;;6308063;22;45298;-60
2023/01/23 15:08:45;;;;;;;;;21.75;20.75;;;;;;;;6307925;22;45220;-60
2023/01/23 15:11:12;;;;;;;;;26.50;22.25;;;;;;;;6307485;22;45720;-61
2023/01/23 15:13:42;;;;;;;;;25.50;20.50;;;;;;;;6305231;22;45285;-60
2023/01/23 15:16:16;;;;;;;;;20.75;19.25;;;;;;;;6307680;22;45341;-60
2023/01/23 15:18:50;;;;;;;;;30.50;24.25;;;;;;;;6307284;22;45306;-61
2023/01/23 15:21:24;;;;;;;;;23.50;20.00;;;;;;;;6307847;22;45255;-60
2023/01/23 15:24:07;;;;;;;;;23.25;19.25;;;;;;;;6307612;22;46038;-60
2023/01/23 15:26:35;;;;;;;;;30.00;20.75;;;;;;;;6308054;22;45377;-60
2023/01/23 15:29:16;;;;;;;;;30.50;25.00;;;;;;;;6307912;22;45231;-60
2023/01/23 15:31:43;;;;;;;;;23.75;21.75;;;;;;;;6307187;22;45408;-60
2023/01/23 15:34:15;;;;;;;;;26.75;20.50;;;;;;;;6307323;22;46149;-60
2023/01/23 15:36:51;;;;;;;;;22.25;19.00;;;;;;;;6307493;22;45600;-60
2023/01/23 15:39:25;;;;;;;;;24.67;21.33;;;;;;;;6307968;22;45389;-60
2023/01/23 15:41:50;;;;;;;;;24.00;18.50;;;;;;;;6307239;22;45223;-60
2023/01/23 15:44:17;;;;;;;;;22.50;21.00;;;;;;;;6306538;22;46248;-60
2023/01/23 15:46:42;;;;;;;;;18.75;18.00;;;;;;;;6307593;22;45315;-60
2023/01/23 15:49:08;;;;;;;;;21.25;19.50;;;;;;;;6306985;22;45284;-62
2023/01/23 15:51:34;;;;;;;;;22.50;22.00;;;;;;;;6307672;22;45201;-59
2023/01/23 15:53:59;;;;;;;;;40.00;28.00;;;;;;;;6307184;22;45402;-59
2023/01/23 15:56:26;;;;;;;;;26.00;21.50;;;;;;;;6308017;22;45458;-60
2023/01/23 15:58:51;;;;;;;;;29.00;23.25;;;;;;;;6306992;22;45156;-60
2023/01/23 16:01:17;;;;;;;;;26.50;23.75;;;;;;;;6307188;22;45457;-60
2023/01/23 16:03:42;;;;;;;;;29.75;21.00;;;;;;;;6308148;22;45699;-60
2023/01/23 16:06:14;;;;;;;;;17.50;13.00;;;;;;;;6306964;22;45315;-60
2023/01/23 16:08:39;;;;;;;;;26.75;18.75;;;;;;;;6308269;22;45286;-60
2023/01/23 16:11:04;;;;;;;;;26.75;19.50;;;;;;;;6307169;22;45235;-60
2023/01/23 16:13:29;;;;;;;;;27.25;21.25;;;;;;;;6308378;22;45348;-60
2023/01/23 16:15:55;;;;;;;;;25.00;21.25;;;;;;;;6305071;22;45344;-60
2023/01/23 16:18:22;;;;;;;;;24.75;22.75;;;;;;;;6307776;22;45175;-61
2023/01/23 16:20:47;;;;;;;;;24.00;23.25;;;;;;;;6307569;22;45419;-60
2023/01/23 16:23:17;;;;;;;;;28.50;22.00;;;;;;;;6307489;22;45568;-61
2023/01/23 16:25:42;;;;;;;;;19.50;19.50;;;;;;;;6307180;22;45261;-61
2023/01/23 16:28:14;;;;;;;;;35.25;22.50;;;;;;;;6307140;22;45798;-61
2023/01/23 16:30:40;;;;;;;;;32.50;25.00;;;;;;;;6307850;22;45442;-61
2023/01/23 16:33:05;;;;;;;;;30.75;23.75;;;;;;;;6307315;22;45325;-61
2023/01/23 16:35:30;;;;;;;;;29.50;25.50;;;;;;;;6308162;22;45239;-60
2023/01/23 16:37:55;;;;;;;;;35.25;25.25;;;;;;;;6306759;22;45211;-60
2023/01/23 16:40:29;;;;;;;;;30.00;24.25;;;;;;;;6308361;22;45223;-60
2023/01/23 16:42:55;;;;;;;;;24.00;22.00;;;;;;;;6306705;22;46069;-60
2023/01/23 16:45:22;;;;;;;;;24.25;23.25;;;;;;;;6306962;22;45706;-61
2023/01/23 16:47:47;;;;;;;;;31.00;25.25;;;;;;;;6308102;22;45307;-60
2023/01/23 16:50:13;;;;;;;;;24.75;22.75;;;;;;;;6307280;22;45107;-59
2023/01/23 16:52:39;;;;;;;;;28.25;24.00;;;;;;;;6307768;22;45906;-60
2023/01/23 16:55:14;;;;;;;;;26.00;22.75;;;;;;;;6306734;22;45299;-60
2023/01/23 16:57:39;;;;;;;;;22.75;19.25;;;;;;;;6307683;22;45319;-60
2023/01/23 17:00:05;;;;;;;;;18.50;15.00;;;;;;;;6306721;22;45203;-60
2023/01/23 17:02:30;;;;;;;;;27.25;25.25;;;;;;;;6306557;22;46027;-60
2023/01/23 17:04:56;;;;;;;;;27.25;25.25;;;;;;;;6307362;22;45231;-60
2023/01/23 17:07:21;;;;;;;;;35.00;27.25;;;;;;;;6305430;22;45287;-60
2023/01/23 17:09:47;;;;;;;;;36.25;24.50;;;;;;;;6307242;22;45586;-59
2023/01/23 17:12:14;;;;;;;;;26.00;25.25;;;;;;;;6306432;22;46303;-60
2023/01/23 17:14:40;;;;;;;;;23.75;20.25;;;;;;;;6299733;22;45357;-62
2023/01/23 17:17:12;;;;;;;;;35.00;25.75;;;;;;;;6305488;22;45386;-60
2023/01/23 17:19:40;;;;;;;;;33.25;28.50;;;;;;;;6306333;22;45595;-61
2023/01/23 17:22:06;;;;;;;;;26.75;24.00;;;;;;;;6306552;22;45369;-61
2023/01/23 17:24:31;;;;;;;;;28.00;23.25;;;;;;;;6307602;22;45312;-61
2023/01/23 17:26:56;;;;;;;;;23.50;20.75;;;;;;;;6306967;22;45563;-60
2023/01/23 17:29:21;;;;;;;;;32.75;25.75;;;;;;;;6279918;22;45414;-61
2023/01/23 17:31:47;;;;;;;;;33.75;28.75;;;;;;;;6307168;22;45458;-61
2023/01/23 17:34:23;;;;;;;;;38.25;30.50;;;;;;;;6307564;22;45323;-61
2023/01/23 17:36:49;;;;;;;;;29.75;24.50;;;;;;;;6308108;22;45289;-61
2023/01/23 17:39:15;;;;;;;;;31.25;24.50;;;;;;;;6306620;22;45404;-61
2023/01/23 17:41:40;;;;;;;;;14.75;13.00;;;;;;;;6307101;22;45358;-61
2023/01/23 17:44:05;;;;;;;;;29.25;25.50;;;;;;;;6307862;22;45471;-60
2023/01/23 17:46:32;;;;;;;;;40.50;34.75;;;;;;;;6307979;22;45335;-61
2023/01/23 17:48:57;;;;;;;;;40.25;32.50;;;;;;;;6306911;22;45460;-60
2023/01/23 17:51:23;;;;;;;;;40.75;32.50;;;;;;;;6307800;22;45967;-62
2023/01/23 17:53:49;;;;;;;;;30.25;29.25;;;;;;;;6307921;22;45589;-61
2023/01/23 17:56:14;;;;;;;;;29.75;28.25;;;;;;;;6306337;22;45437;-62
2023/01/23 17:58:40;;;;;;;;;30.25;28.25;;;;;;;;6307785;22;45485;-61
2023/01/23 18:01:16;;;;;;;;;32.00;29.00;;;;;;;;6306602;22;46128;-61
2023/01/23 18:03:41;;;;;;;;;43.00;35.25;;;;;;;;6279329;22;45988;-61
2023/01/23 18:06:06;;;;;;;;;47.25;36.25;;;;;;;;6306400;22;45439;-61
2023/01/23 18:08:31;;;;;;;;;43.25;30.00;;;;;;;;6309030;22;45327;-61
2023/01/23 18:10:59;;;;;;;;;34.75;28.50;;;;;;;;6307581;22;45533;-61
2023/01/23 18:13:36;;;;;;;;;41.50;36.50;;;;;;;;6308286;22;45270;-61
2023/01/23 18:16:04;;;;;;;;;42.25;33.50;;;;;;;;6307432;22;45562;-61
2023/01/23 18:18:30;;;;;;;;;40.75;27.50;;;;;;;;6307571;22;45175;-62
2023/01/23 18:20:56;;;;;;;;;43.25;30.50;;;;;;;;6306510;22;46860;-62
2023/01/23 18:23:23;;;;;;;;;43.75;32.00;;;;;;;;6308162;22;45320;-61
2023/01/23 18:25:52;;;;;;;;;37.50;33.75;;;;;;;;6306794;22;45322;-61
2023/01/23 18:28:21;;;;;;;;;37.75;31.25;;;;;;;;6331925;22;45436;-62
2023/01/23 18:30:59;;;;;;;;;44.75;35.25;;;;;;;;6307522;22;46151;-61
2023/01/23 18:33:25;;;;;;;;;31.75;29.50;;;;;;;;6307009;22;45436;-60
2023/01/23 18:36:00;;;;;;;;;35.25;26.75;;;;;;;;6279236;22;45481;-61
2023/01/23 18:38:44;;;;;;;;;37.00;31.75;;;;;;;;6308565;22;45620;-61
2023/01/23 18:41:12;;;;;;;;;39.50;32.00;;;;;;;;6306339;22;45243;-61
2023/01/23 18:43:39;;;;;;;;;33.75;26.25;;;;;;;;6308592;22;45291;-62
2023/01/23 18:46:10;;;;;;;;;42.50;34.25;;;;;;;;6305537;22;45410;-61
2023/01/23 18:48:37;;;;;;;;;41.00;28.75;;;;;;;;6307994;22;45164;-61
2023/01/23 18:51:15;;;;;;;;;37.00;29.50;;;;;;;;6307180;22;45730;-61
2023/01/23 18:53:49;;;;;;;;;40.50;27.00;;;;;;;;6308083;22;45314;-61
2023/01/23 18:56:21;;;;;;;;;34.25;28.50;;;;;;;;6306553;22;45366;-60
2023/01/23 18:59:05;;;;;;;;;42.25;31.75;;;;;;;;6306773;22;45533;-60
2023/01/23 19:01:43;;;;;;;;;42.25;37.50;;;;;;;;6303408;22;46144;-61
2023/01/23 19:04:12;;;;;;;;;45.00;36.50;;;;;;;;6303613;22;45349;-61
2023/01/23 19:06:38;;;;;;;;;33.25;30.50;;;;;;;;6278553;22;45495;-61
2023/01/23 19:09:03;;;;;;;;;35.25;32.25;;;;;;;;6305384;22;45157;-59
2023/01/23 19:11:34;;;;;;;;;40.00;28.00;;;;;;;;6307023;22;45449;-61
2023/01/23 19:14:05;;;;;;;;;33.50;28.75;;;;;;;;6306707;22;45484;-63
2023/01/23 19:16:31;;;;;;;;;39.00;27.00;;;;;;;;6306434;22;45243;-62
2023/01/23 19:19:05;;;;;;;;;33.00;27.75;;;;;;;;6306382;22;45237;-62
2023/01/23 19:21:31;;;;;;;;;31.50;25.75;;;;;;;;6305905;22;45565;-60
2023/01/23 19:24:05;;;;;;;;;32.75;23.25;;;;;;;;6305996;22;45216;-62
2023/01/23 19:26:40;;;;;;;;;38.25;30.25;;;;;;;;6306559;22;45244;-62
2023/01/23 19:29:06;;;;;;;;;31.00;25.50;;;;;;;;6304489;22;45631;-62
2023/01/23 19:31:35;;;;;;;;;25.00;24.50;;;;;;;;6306688;22;45514;-62
2023/01/23 19:34:01;;;;;;;;;28.00;26.25;;;;;;;;6306172;22;45800;-61
2023/01/23 19:36:28;;;;;;;;;38.00;30.25;;;;;;;;6306979;22;45379;-61
2023/01/23 19:38:59;;;;;;;;;36.50;30.25;;;;;;;;6307221;22;45474;-62
2023/01/23 19:41:27;;;;;;;;;29.75;26.00;;;;;;;;6307594;22;45363;-62
2023/01/23 19:43:53;;;;;;;;;40.75;28.25;;;;;;;;6307127;22;45231;-62
2023/01/23 19:46:20;;;;;;;;;30.00;24.50;;;;;;;;6307600;22;45695;-62
2023/01/23 19:48:45;;;;;;;;;28.00;23.00;;;;;;;;6307761;22;45208;-61
2023/01/23 19:51:15;;;;;;;;;34.00;33.00;;;;;;;;6306870;22;45925;-61
2023/01/23 19:53:40;;;;;;;;;34.50;25.50;;;;;;;;6305844;22;45565;-61
2023/01/23 19:56:05;;;;;;;;;29.00;28.25;;;;;;;;6307883;22;45696;-62
2023/01/23 19:58:31;;;;;;;;;35.00;31.00;;;;;;;;6308225;22;45278;-61
2023/01/23 20:00:56;;;;;;;;;33.00;25.50;;;;;;;;6306185;22;45424;-63
2023/01/23 20:03:21;;;;;;;;;32.50;31.00;;;;;;;;6306845;22;45291;-62
2023/01/23 20:05:46;;;;;;;;;37.75;36.00;;;;;;;;6308389;22;45495;-61
2023/01/23 20:08:12;;;;;;;;;38.00;31.00;;;;;;;;6307967;22;45379;-61
2023/01/23 20:10:37;;;;;;;;;44.50;34.25;;;;;;;;6308085;22;46281;-62
2023/01/23 20:13:02;;;;;;;;;42.75;35.75;;;;;;;;6308128;22;45411;-61
2023/01/23 20:15:28;;;;;;;;;38.25;33.50;;;;;;;;6308647;22;45409;-61
2023/01/23 20:17:54;;;;;;;;;46.00;31.25;;;;;;;;6306313;22;45337;-61
2023/01/23 20:20:19;;;;;;;;;47.25;31.00;;;;;;;;6308483;22;46463;-62
2023/01/23 20:22:44;;;;;;;;;39.50;30.25;;;;;;;;6306709;22;45266;-62
2023/01/23 20:25:12;;;;;;;;;50.00;40.25;;;;;;;;6307492;22;45232;-62
2023/01/23 20:27:38;;;;;;;;;36.50;33.25;;;;;;;;6308761;22;45251;-61
2023/01/23 20:30:04;;;;;;;;;47.75;36.00;;;;;;;;6307297;22;45379;-62
2023/01/23 20:32:31;;;;;;;;;29.25;25.00;;;;;;;;6280161;22;45306;-61
2023/01/23 20:34:56;;;;;;;;;39.25;29.50;;;;;;;;6306281;22;45281;-61
2023/01/23 20:37:21;;;;;;;;;35.50;27.50;;;;;;;;6307675;22;45426;-62
2023/01/23 20:39:46;;;;;;;;;33.00;26.50;;;;;;;;6308028;22;46249;-62
2023/01/23 20:42:11;;;;;;;;;32.00;30.00;;;;;;;;6306812;22;45224;-62
2023/01/23 20:44:37;;;;;;;;;34.75;30.75;;;;;;;;6307702;22;45412;-62
2023/01/23 20:47:02;;;;;;;;;33.00;26.50;;;;;;;;6307639;22;45246;-62
2023/01/23 20:49:27;;;;;;;;;41.75;30.75;;;;;;;;6308870;22;45965;-62